首页
METAR-TAF:

METAR-TAF

机场 :

里加国际机场

里加, 拉脱维亚

纬度: 56-55N, 经度: 023-58E, 海拔: 10米

当前天气观测

该预报发布于8分钟前的03:20 UTC
风速6节,风向东北
温度 14°C
湿度 72%
气压 1026 hPa
能见度10公里或以上
1500米以下无云,无积雨云

METAR: EVRA 250320Z 04006KT CAVOK 14/09 Q1026 NOSIG

时间: 06:28 (03:28 UTC)

预报

该预报发布于1小时和27分钟前的02:01 UTC
预报有效从25日的 03点(UTC)到 26日的 03点(UTC)
风速5节,风向
能见度10公里或以上
1500米以下无云,无积雨云
成为
从 25日的 09点(UTC)到 25日的 11点(UTC)
风速10节,风向
成为
从 25日的 15点(UTC)到 25日的 17点(UTC)
风速7节,风向

TAF: EVRA 250201Z 2503/2603 08005KT CAVOK BECMG 2509/2511 01010KT BECMG 2515/2517 08007KT

超过4000个机场的气象观测和天气预报(METAR&TAF报告)。

可查询的气象台以黄色和红色小点在地图上表示。

将鼠标移到小点上方,可查看气象台名称。

然后点击查看天气观测和预报。

如需切换地图:点击带黑十字的绿色按钮放大地图;点击带横线的绿色按钮缩小地图;或者点击绿色箭头查看邻近地区的地图。


METAR-TAF: